Time;durP1;ratioP1;P1;durP2;ratioP2;P2;SDS_P1;SDS_P2;PMS_P1;PMS_P2;Temp;Humidity;BMP_temperature;BMP_pressure;BME280_temperature;BME280_humidity;BME280_pressure;Samples;Min_cycle;Max_cycle;Signal;HPM_P1;HPM_P2
2023/09/19 00:00:21;;;;;;;9.32;1.60;;;;;;;;;;5121104;27;20552;-64
2023/09/19 00:02:53;;;;;;;12.23;1.80;;;;;;;;;;5092208;28;20510;-64
2023/09/19 00:05:23;;;;;;;10.38;1.90;;;;;;;;;;5092743;28;20052;-64
2023/09/19 00:07:54;;;;;;;;;;;13.30;99.90;;;;;;5085003;28;20083;-63
2023/09/19 00:10:21;;;;;;;;;;;13.60;99.90;;;;;;5090199;28;19982;-63
2023/09/19 00:12:47;;;;;;;19.95;2.15;;;;;;;;;;5092749;27;19939;-64
2023/09/19 00:15:17;;;;;;;9.52;2.55;;;;;;;;;;5102666;28;20173;-64
2023/09/19 00:17:43;;;;;;;8.93;2.25;;;;;;;;;;5092657;28;20122;-64
2023/09/19 00:20:12;;;;;;;20.58;2.17;;;;;;;;;;5069512;28;20044;-64
2023/09/19 00:22:44;;;;;;;12.88;2.15;;;;;;;;;;5108945;28;20055;-63
2023/09/19 00:25:11;;;;;;;10.48;2.08;;;;;;;;;;5093402;28;20082;-63
2023/09/19 00:27:41;;;;;;;12.50;2.28;;;;;;;;;;5111120;28;20059;-63
2023/09/19 00:30:19;;;;;;;8.93;2.05;;;;;;;;;;5091722;28;20063;-63
2023/09/19 00:32:47;;;;;;;11.00;2.72;;;;;;;;;;5102254;28;20052;-63
2023/09/19 00:35:17;;;;;;;13.07;2.00;;;;;;;;;;5086112;28;20516;-63
2023/09/19 00:37:43;;;;;;;8.65;1.70;;;;;;;;;;5126597;27;20073;-63
2023/09/19 00:40:15;;;;;;;9.50;1.70;;;;;;;;;;5075867;28;20043;-63
2023/09/19 00:42:41;;;;;;;11.95;1.90;;;;;;;;;;5112802;27;20051;-63
2023/09/19 00:45:10;;;;;;;13.27;2.28;;;;;;;;;;5088031;28;20140;-63
2023/09/19 00:47:37;;;;;;;13.45;2.03;;;;;;;;;;5090712;28;20425;-63
2023/09/19 00:50:04;;;;;;;11.50;2.35;;;;;;;;;;5076092;28;20494;-65
2023/09/19 00:52:32;;;;;;;7.20;1.70;;;;;;;;;;5091755;28;20055;-64
2023/09/19 00:55:00;;;;;;;13.35;2.72;;;;;;;;;;5112399;28;20723;-63
2023/09/19 00:57:26;;;;;;;10.63;1.40;;;;;;;;;;5094632;28;20093;-64
2023/09/19 00:59:54;;;;;;;14.25;2.05;;;;;;;;;;5077453;28;20058;-63
2023/09/19 01:02:21;;;;;;;10.10;2.10;;;;;;;;;;5109610;28;20135;-64
2023/09/19 01:04:47;;;;;;;6.97;1.98;;;;;;;;;;5096167;28;20059;-64
2023/09/19 01:07:14;;;;;;;9.63;2.08;;;;;;;;;;5093032;28;20043;-64
2023/09/19 01:09:41;;;;;;;10.00;2.25;;;;;;;;;;5077849;28;20101;-64
2023/09/19 01:12:08;;;;;;;7.53;1.60;;;;;;;;;;5091147;28;20548;-64
2023/09/19 01:14:59;;;;;;;12.75;2.40;;;13.50;99.90;;;;;;5106520;28;20044;-63
2023/09/19 01:17:28;;;;;;;7.53;1.95;;;;;;;;;;5102037;28;20398;-63
2023/09/19 01:20:04;;;;;;;8.00;1.35;;;;;;;;;;5077320;28;20051;-63
2023/09/19 01:22:32;;;;;;;6.35;1.30;;;;;;;;;;5102813;27;20504;-63
2023/09/19 01:25:02;;;;;;;10.65;1.50;;;;;;;;;;5093795;28;20058;-63
2023/09/19 01:27:48;;;;;;;10.48;1.88;;;;;;;;;;5093856;28;20054;-63
2023/09/19 01:30:15;;;;;;;8.50;2.13;;;;;;;;;;5099720;28;20050;-63
2023/09/19 01:32:43;;;;;;;11.43;2.22;;;;;;;;;;5094985;28;20070;-63
2023/09/19 01:35:12;;;;;;;6.20;1.25;;;;;;;;;;5093750;28;20048;-63
2023/09/19 01:37:38;;;;;;;9.40;1.83;;;;;;;;;;5108261;28;20507;-63
2023/09/19 01:40:18;;;;;;;8.25;1.35;;;;;;;;;;5108285;28;20043;-63
2023/09/19 01:42:51;;;;;;;9.47;1.90;;;;;;;;;;5095081;28;20055;-63
2023/09/19 01:45:21;;;;;;;12.85;2.53;;;;;;;;;;5110716;28;20056;-62
2023/09/19 01:47:53;;;;;;;14.05;3.30;;;;;;;;;;5093780;28;20060;-62
2023/09/19 01:50:25;;;;;;;7.25;1.25;;;;;;;;;;5100052;28;20054;-62
2023/09/19 01:53:02;;;;;;;9.35;1.58;;;;;;;;;;5104173;28;20078;-62
2023/09/19 01:55:29;;;;;;;8.32;1.58;;;;;;;;;;5093195;28;20066;-62
2023/09/19 01:58:03;;;;;;;8.80;1.23;;;;;;;;;;5085257;28;20063;-62
2023/09/19 02:00:32;;;;;;;10.15;1.55;;;;;;;;;;5120677;28;20129;-62
2023/09/19 02:02:58;;;;;;;12.30;2.60;;;;;;;;;;5078322;28;20047;-62
2023/09/19 02:05:25;;;;;;;10.55;2.08;;;;;;;;;;5115548;28;20051;-62
2023/09/19 02:07:53;;;;;;;7.55;1.90;;;;;;;;;;5107315;27;20127;-62
2023/09/19 02:10:19;;;;;;;11.02;2.33;;;;;;;;;;5109025;27;20481;-63
2023/09/19 02:12:46;;;;;;;9.27;1.85;;;;;;;;;;5107470;27;20059;-62
2023/09/19 02:15:12;;;;;;;7.43;1.73;;;;;;;;;;5093372;27;20044;-63
2023/09/19 02:17:38;;;;;;;12.43;1.65;;;;;;;;;;5096528;28;20044;-63
2023/09/19 02:20:14;;;;;;;8.98;1.67;;;;;;;;;;5115458;28;20135;-63
2023/09/19 02:22:40;;;;;;;6.82;1.20;;;;;;;;;;5093479;28;20048;-62
2023/09/19 02:25:07;;;;;;;8.43;2.65;;;;;;;;;;5113022;28;20054;-63
2023/09/19 02:27:33;;;;;;;8.73;1.80;;;;;;;;;;5088152;28;20673;-62
2023/09/19 02:30:02;;;;;;;8.50;1.60;;;;;;;;;;5094981;28;20466;-62
2023/09/19 02:32:30;;;;;;;7.22;1.85;;;;;;;;;;5104910;28;20499;-62
2023/09/19 02:34:57;;;;;;;14.32;1.70;;;;;;;;;;5097391;28;20142;-62
2023/09/19 02:37:23;;;;;;;8.07;1.75;;;;;;;;;;5104930;27;20066;-62
2023/09/19 02:39:49;;;;;;;13.85;1.65;;;;;;;;;;5089389;28;20051;-62
2023/09/19 02:42:15;;;;;;;7.32;1.92;;;;;;;;;;5067842;28;20070;-62
2023/09/19 02:44:41;;;;;;;11.15;1.85;;;;;;;;;;5105284;28;20176;-62
2023/09/19 02:47:08;;;;;;;7.30;2.15;;;;;;;;;;5085941;28;20130;-63
2023/09/19 02:49:34;;;;;;;11.32;2.00;;;;;;;;;;5095956;27;20047;-62
2023/09/19 02:52:00;;;;;;;11.85;1.75;;;;;;;;;;5117361;27;20131;-62
2023/09/19 02:54:26;;;;;;;11.10;2.08;;;;;;;;;;5112680;28;20118;-62
2023/09/19 02:56:53;;;;;;;9.18;1.83;;;;;;;;;;5094751;28;20039;-63
2023/09/19 02:59:19;;;;;;;9.63;1.90;;;;;;;;;;5096394;28;20138;-62
2023/09/19 03:01:48;;;;;;;9.40;2.00;;;;;;;;;;5105484;27;20107;-62
2023/09/19 03:04:19;;;;;;;11.93;1.90;;;;;;;;;;5118812;27;20437;-62
2023/09/19 03:06:45;;;;;;;15.18;1.80;;;;;;;;;;5091416;27;20151;-62
2023/09/19 03:09:12;;;;;;;10.05;1.55;;;;;;;;;;5096986;28;20073;-62
2023/09/19 03:11:39;;;;;;;6.97;1.90;;;;;;;;;;5114181;28;20047;-62
2023/09/19 03:14:06;;;;;;;5.82;1.85;;;;;;;;;;5094587;28;20126;-62
2023/09/19 03:16:33;;;;;;;9.20;2.25;;;;;;;;;;5113427;28;20046;-62
2023/09/19 03:18:59;;;;;;;11.95;2.25;;;;;;;;;;5114802;28;20051;-63
2023/09/19 03:21:25;;;;;;;10.57;1.58;;;;;;;;;;5112972;28;20043;-62
2023/09/19 03:23:51;;;;;;;11.93;2.15;;;;;;;;;;5077971;28;20480;-63
2023/09/19 03:26:18;;;;;;;16.25;1.88;;;;;;;;;;5112336;28;20587;-63
2023/09/19 03:28:45;;;;;;;12.25;2.30;;;;;;;;;;5095900;28;20079;-62
2023/09/19 03:31:11;;;;;;;7.88;1.55;;;;;;;;;;5112792;28;20577;-63
2023/09/19 03:33:38;;;;;;;11.15;1.90;;;;;;;;;;5095977;28;20046;-62
2023/09/19 03:36:04;;;;;;;11.02;1.95;;;;;;;;;;5112432;27;20090;-63
2023/09/19 03:38:31;;;;;;;12.50;1.92;;;;;;;;;;5113658;28;20059;-62
2023/09/19 03:40:57;;;;;;;9.60;2.15;;;;;;;;;;5112101;28;20058;-62
2023/09/19 03:43:23;;;;;;;12.60;1.83;;;;;;;;;;5094844;28;20510;-62
2023/09/19 03:45:50;;;;;;;7.13;1.45;;;;;;;;;;5106096;28;20165;-62
2023/09/19 03:48:17;;;;;;;7.63;1.38;;;;;;;;;;5078003;28;20114;-62
2023/09/19 03:50:46;;;;;;;7.75;1.60;;;;;;;;;;5102912;28;20047;-62
2023/09/19 03:53:12;;;;;;;8.38;2.58;;;;;;;;;;5098795;28;20055;-62
2023/09/19 03:55:41;;;;;;;7.60;1.83;;;;;;;;;;5073328;28;20437;-62
2023/09/19 03:58:07;;;;;;;6.50;1.48;;;;;;;;;;5111414;28;20044;-62
2023/09/19 04:00:34;;;;;;;13.75;1.98;;;;;;;;;;5113145;28;20123;-62
2023/09/19 04:03:05;;;;;;;7.03;1.38;;;;;;;;;;5080730;28;20048;-62
2023/09/19 04:05:31;;;;;;;9.63;1.88;;;;;;;;;;5085055;28;20045;-62
2023/09/19 04:07:57;;;;;;;9.15;2.00;;;;;;;;;;5085419;28;20052;-62
2023/09/19 04:10:23;;;;;;;12.90;1.88;;;;;;;;;;5113249;28;20052;-62
2023/09/19 04:12:56;;;;;;;13.52;3.60;;;;;;;;;;5112171;28;20047;-62
2023/09/19 04:15:23;;;;;;;7.20;1.58;;;;;;;;;;5076071;28;20571;-62
2023/09/19 04:17:50;;;;;;;6.35;1.67;;;;;;;;;;5094247;28;20048;-62
2023/09/19 04:20:17;;;;;;;6.03;2.30;;;;;;;;;;5094884;28;20056;-63
2023/09/19 04:22:43;;;;;;;12.18;2.03;;;;;;;;;;5112101;28;20048;-64
2023/09/19 04:25:10;;;;;;;13.20;2.00;;;;;;;;;;5115724;27;20058;-63
2023/09/19 04:27:36;;;;;;;11.45;2.17;;;;;;;;;;5094448;28;20066;-62
2023/09/19 04:30:04;;;;;;;10.45;2.45;;;;;;;;;;5093635;28;20051;-63
2023/09/19 04:32:32;;;;;;;9.48;1.63;;;;;;;;;;5093786;28;20062;-62
2023/09/19 04:35:00;;;;;;;11.15;2.22;;;;;;;;;;5081124;27;20043;-62
2023/09/19 04:37:26;;;;;;;10.35;1.80;;;;;;;;;;5109809;28;20059;-63
2023/09/19 04:39:52;;;;;;;12.57;3.33;;;;;;;;;;5107161;28;20043;-62
2023/09/19 04:42:19;;;;;;;11.63;2.00;;;;;;;;;;5074362;28;20492;-62
2023/09/19 04:44:45;;;;;;;11.10;2.78;;;;;;;;;;5100576;28;20055;-62
2023/09/19 04:47:12;;;;;;;8.68;2.08;;;;;;;;;;5112628;28;20058;-62
2023/09/19 04:49:39;;;;;;;13.25;2.38;;;;;;;;;;5097658;27;20054;-62
2023/09/19 04:52:06;;;;;;;14.30;2.40;;;;;;;;;;5104265;28;20079;-63
2023/09/19 04:54:33;;;;;;;10.13;1.98;;;;;;;;;;5112558;28;20592;-62
2023/09/19 04:57:00;;;;;;;9.13;2.25;;;;;;;;;;5093520;28;20051;-62
2023/09/19 04:59:28;;;;;;;14.25;3.42;;;;;;;;;;5111181;27;20070;-63
2023/09/19 05:01:54;;;;;;;10.32;2.08;;;;;;;;;;5112296;27;20079;-62
2023/09/19 05:04:20;;;;;;;13.23;2.53;;;;;;;;;;5115856;27;20047;-62
2023/09/19 05:06:46;;;;;;;13.55;2.03;;;;;;;;;;5091631;28;20056;-62
2023/09/19 05:09:13;;;;;;;7.45;2.17;;;;;;;;;;5102331;27;20056;-62
2023/09/19 05:11:39;;;;;;;9.10;2.05;;;;;;;;;;5108316;28;20054;-62
2023/09/19 05:14:05;;;;;;;11.77;2.13;;;;;;;;;;5076211;28;20464;-63
2023/09/19 05:16:31;;;;;;;9.43;3.17;;;;;;;;;;5113501;27;20513;-62
2023/09/19 05:19:01;;;;;;;9.80;2.10;;;;;;;;;;5132579;27;20498;-62
2023/09/19 05:21:30;;;;;;;14.68;2.38;;;;;;;;;;5102601;28;20050;-62
2023/09/19 05:23:56;;;;;;;7.97;1.55;;;;;;;;;;5111922;28;20487;-62
2023/09/19 05:26:23;;;;;;;12.90;3.13;;;;;;;;;;5111529;28;20061;-62
2023/09/19 05:28:49;;;;;;;16.48;2.33;;;;;;;;;;5126003;27;20058;-62
2023/09/19 05:31:16;;;;;;;8.27;1.88;;;;;;;;;;5110506;28;20395;-62
2023/09/19 05:33:44;;;;;;;11.35;2.65;;;;;;;;;;5090180;28;20128;-62
2023/09/19 05:36:11;;;;;;;12.15;2.40;;;;;;;;;;5095883;28;20043;-62
2023/09/19 05:38:40;;;;;;;17.38;2.72;;;;;;;;;;5106206;28;20047;-62
2023/09/19 05:41:08;;;;;;;12.38;2.25;;;;;;;;;;5109684;28;20093;-62
2023/09/19 05:43:34;;;;;;;20.83;2.83;;;;;;;;;;5109932;28;20048;-62
2023/09/19 05:46:00;;;;;;;15.73;2.70;;;;;;;;;;5109797;28;20056;-62
2023/09/19 05:48:27;;;;;;;20.02;2.38;;;;;;;;;;5092702;28;20097;-63
2023/09/19 05:50:53;;;;;;;18.60;2.63;;;;;;;;;;5121636;28;20058;-63
2023/09/19 05:53:19;;;;;;;13.75;2.00;;;;;;;;;;5111354;28;20118;-62
2023/09/19 05:55:45;;;;;;;14.23;2.47;;;;;;;;;;5093190;28;20131;-62
2023/09/19 05:58:14;;;;;;;14.15;1.92;;;;;;;;;;5092209;28;20051;-62
2023/09/19 06:00:44;;;;;;;12.85;2.20;;;;;;;;;;5093209;28;20077;-62
2023/09/19 06:03:13;;;;;;;10.38;2.10;;;;;;;;;;5110917;28;20047;-62
2023/09/19 06:05:40;;;;;;;12.20;1.80;;;;;;;;;;5074391;28;20523;-62
2023/09/19 06:08:07;;;;;;;12.07;2.78;;;;;;;;;;5109608;28;20113;-62
2023/09/19 06:10:37;;;;;;;8.77;2.25;;;;;;;;;;5111705;28;20051;-62
2023/09/19 06:13:04;;;;;;;8.85;1.90;;;;;;;;;;5109378;28;20462;-63
2023/09/19 06:15:32;;;;;;;9.88;2.38;;;;;;;;;;5094132;28;20047;-62
2023/09/19 06:18:04;;;;;;;15.63;2.47;;;;;;;;;;5126478;28;20047;-62
2023/09/19 06:20:31;;;;;;;12.93;1.75;;;;;;;;;;5081698;28;20498;-62
2023/09/19 06:22:57;;;;;;;16.20;2.85;;;;;;;;;;5095340;28;20046;-62
2023/09/19 06:25:23;;;;;;;14.63;2.05;;;;;;;;;;5091662;28;20063;-63
2023/09/19 06:27:52;;;;;;;12.43;2.28;;;;;;;;;;5092953;28;20471;-62
2023/09/19 06:30:18;;;;;;;11.35;1.92;;;;;;;;;;5110398;28;20561;-62
2023/09/19 06:32:44;;;;;;;14.25;2.72;;;;;;;;;;5111436;28;20467;-62
2023/09/19 06:35:14;;;;;;;12.05;2.20;;;;;;;;;;5110992;28;20050;-62
2023/09/19 06:37:40;;;;;;;20.85;4.32;;;;;;;;;;5093144;28;20442;-63
2023/09/19 06:40:14;;;;;;;11.70;2.35;;;;;;;;;;5090402;28;20058;-63
2023/09/19 06:42:47;;;;;;;9.93;2.55;;;;;;;;;;5107364;28;20382;-62
2023/09/19 06:45:18;;;;;;;13.95;2.38;;;;;;;;;;5111056;28;20050;-62
2023/09/19 06:47:49;;;;;;;10.93;1.98;;;;;;;;;;5092881;28;20094;-62
2023/09/19 06:50:18;;;;;;;12.77;2.08;;;;;;;;;;5114178;28;20503;-63
2023/09/19 06:52:45;;;;;;;11.93;1.90;;;;;;;;;;5111915;28;20068;-62
2023/09/19 06:55:13;;;;;;;12.50;2.38;;;;;;;;;;5114263;28;20065;-63
2023/09/19 06:57:45;;;;;;;7.72;2.10;;;;;;;;;;5127048;27;20051;-62
2023/09/19 07:00:15;;;;;;;12.90;2.85;;;;;;;;;;5135221;27;20047;-63
2023/09/19 07:02:45;;;;;;;12.55;2.75;;;;;;;;;;5121290;27;20050;-62
2023/09/19 07:05:11;;;;;;;9.68;2.17;;;;;;;;;;5134075;27;20075;-62
2023/09/19 07:07:37;;;;;;;12.30;2.22;;;;;;;;;;5116621;27;20506;-63
2023/09/19 07:10:10;;;;;;;14.05;2.65;;;;;;;;;;5134203;27;20050;-63
2023/09/19 07:12:37;;;;;;;14.65;3.70;;;;;;;;;;5134046;27;20055;-62
2023/09/19 07:15:03;;;;;;;10.80;2.33;;;;;;;;;;5116892;27;20463;-63
2023/09/19 07:17:29;;;;;;;11.15;2.25;;;;;;;;;;5123996;27;20043;-63
2023/09/19 07:19:55;;;;;;;13.10;2.35;;;;;;;;;;5134321;27;20058;-62
2023/09/19 07:22:23;;;;;;;9.88;2.25;;;;;;;;;;5115300;27;20046;-63
2023/09/19 07:24:49;;;;;;;8.88;1.90;;;;;;;;;;5112192;28;20117;-62
2023/09/19 07:27:16;;;;;;;9.15;2.15;;;;;;;;;;5079426;28;20067;-63
2023/09/19 07:29:42;;;;;;;12.00;2.10;;;;;;;;;;5133732;27;20050;-62
2023/09/19 07:32:10;;;;;;;15.65;3.15;;;;;;;;;;5129666;27;20122;-62
2023/09/19 07:34:38;;;;;;;6.75;1.90;;;;;;;;;;5128667;27;20086;-62
2023/09/19 07:37:04;;;;;;;13.07;2.28;;;;;;;;;;5133675;27;20058;-62
2023/09/19 07:39:30;;;;;;;11.55;2.30;;;;;;;;;;5134771;27;20047;-60
2023/09/19 07:41:57;;;;;;;14.80;2.17;;;;;;;;;;5102683;27;20126;-61
2023/09/19 07:44:25;;;;;;;12.38;2.70;;;;;;;;;;5112700;27;20063;-60
2023/09/19 07:46:52;;;;;;;8.98;2.42;;;;;;;;;;5127477;27;20067;-61
2023/09/19 07:49:18;;;;;;;9.25;2.22;;;;;;;;;;5133160;27;20108;-60
2023/09/19 07:51:46;;;;;;;13.05;2.00;;;;;;;;;;5130681;27;20633;-61
2023/09/19 07:54:14;;;;;;;7.78;2.13;;;;;;;;;;5128338;27;20532;-60
2023/09/19 07:56:40;;;;;;;21.15;3.42;;;;;;;;;;5131884;27;20059;-60
2023/09/19 07:59:06;;;;;;;10.82;2.50;;;;;;;;;;5128842;27;20130;-61
2023/09/19 08:01:33;;;;;;;12.18;2.30;;;;;;;;;;5113668;27;20042;-60
2023/09/19 08:03:59;;;;;;;11.35;2.35;;;;;;;;;;5115072;27;20051;-60
2023/09/19 08:06:30;;;;;;;11.65;1.83;;;;;;;;;;5114695;27;20055;-61
2023/09/19 08:08:56;;;;;;;10.55;2.03;;;;;;;;;;5133540;27;20063;-60
2023/09/19 08:11:24;;;;;;;11.10;2.33;;;;;;;;;;5132662;27;20051;-61
2023/09/19 08:13:50;;;;;;;15.32;2.17;;;;;;;;;;5133900;27;20103;-60
2023/09/19 08:16:17;;;;;;;12.00;1.85;;;;;;;;;;5132228;27;20499;-60
2023/09/19 08:18:48;;;;;;;12.98;2.58;;;;;;;;;;5130305;27;20133;-62
2023/09/19 08:21:14;;;;;;;15.73;1.92;;;;;;;;;;5133587;27;20043;-61
2023/09/19 08:23:41;;;;;;;13.90;2.67;;;;;;;;;;5115698;27;20043;-64
2023/09/19 08:26:08;;;;;;;11.57;2.03;;;;;;;;;;5094923;27;20100;-63
2023/09/19 08:28:40;;;;;;;7.45;1.77;;;;;;;;;;5113342;27;20055;-62
2023/09/19 08:31:06;;;;;;;8.32;2.33;;;;;;;;;;5131806;27;20058;-60
2023/09/19 08:33:33;;;;;;;11.88;2.60;;;;;;;;;;5118562;27;20127;-63
2023/09/19 08:35:59;;;;;;;10.35;2.47;;;;;;;;;;5126100;27;20054;-62
2023/09/19 08:38:29;;;;;;;18.33;4.30;;;;;;;;;;5132699;27;20155;-63
2023/09/19 08:40:59;;;;;;;12.75;2.90;;;;;;;;;;5132072;27;20260;-62
2023/09/19 08:43:25;;;;;;;12.52;2.42;;;;;;;;;;5116887;27;20047;-63
2023/09/19 08:45:55;;;;;;;12.40;2.60;;;;;;;;;;5133694;27;20388;-63
2023/09/19 08:48:28;;;;;;;16.13;2.42;;;;;;;;;;5130865;27;20514;-63
2023/09/19 08:51:05;;;;;;;15.85;2.67;;;;;;;;;;5132589;27;20051;-63
2023/09/19 08:53:31;;;;;;;10.57;2.10;;;;;;;;;;5131803;27;20050;-62
2023/09/19 08:56:01;;;;;;;11.15;2.60;;;;;;;;;;5131793;27;20055;-63
2023/09/19 08:58:29;;;;;;;11.43;3.63;;;;;;;;;;5132184;27;20072;-63
2023/09/19 09:00:57;;;;;;;13.45;2.35;;;;;;;;;;5131979;27;20050;-62
2023/09/19 09:03:23;;;;;;;16.55;2.95;;;;;;;;;;5116032;27;20047;-63
2023/09/19 09:05:50;;;;;;;10.82;3.58;;;;;;;;;;5117052;27;20043;-64
2023/09/19 09:08:17;;;;;;;11.18;3.20;;;;;;;;;;5116901;27;20051;-63
2023/09/19 09:10:44;;;;;;;11.35;2.88;;;17.90;99.90;;;;;;5092827;28;20059;-62
2023/09/19 09:13:14;;;;;;;12.27;2.42;;;;;;;;;;5134495;27;20046;-62
2023/09/19 09:15:41;;;;;;;10.70;2.58;;;;;;;;;;5116837;27;20055;-62
2023/09/19 09:18:07;;;;;;;16.50;3.70;;;;;;;;;;5116145;27;20074;-64
2023/09/19 09:20:33;;;;;;;15.48;2.58;;;;;;;;;;5108821;27;20047;-61
2023/09/19 09:23:00;;;;;;;16.23;3.08;;;;;;;;;;5126308;27;20600;-54
2023/09/19 09:25:46;;;;;;;10.32;2.35;;;;;;;;;;5128949;27;20130;-52
2023/09/19 09:28:13;;;;;;;11.90;2.60;;;;;;;;;;5126939;27;20057;-56
2023/09/19 09:30:39;;;;;;;13.35;2.13;;;;;;;;;;5131458;27;20051;-55
2023/09/19 09:33:11;;;;;;;15.65;4.25;;;;;;;;;;5130234;27;20039;-55
2023/09/19 09:35:53;;;;;;;12.90;2.78;;;;;;;;;;5113852;28;20059;-55
2023/09/19 09:38:19;;;;;;;11.30;1.77;;;;;;;;;;5130130;28;20042;-55
2023/09/19 09:40:58;;;;;;;11.77;2.25;;;;;;;;;;5122340;28;20051;-56
2023/09/19 09:43:39;;;;;;;13.57;2.88;;;;;;;;;;5126956;28;20111;-55
2023/09/19 09:49:14;;;;;;;7.78;1.67;;;;;;;;;;5130156;28;20039;-56
2023/09/19 09:51:39;;;;;;;17.37;2.30;;;;;;;;;;5129721;28;20080;-55
2023/09/19 09:54:15;;;;;;;14.82;3.03;;;;;;;;;;5128363;28;20055;-55
2023/09/19 09:56:54;;;;;;;13.07;2.55;;;;;;;;;;5129129;28;20054;-55
2023/09/19 09:59:24;;;;;;;12.85;2.90;;;;;;;;;;5132122;28;20444;-55
2023/09/19 10:01:51;;;;;;;11.65;2.85;;;;;;;;;;5131062;28;20049;-55
2023/09/19 10:04:35;;;;;;;14.82;2.88;;;;;;;;;;5106863;28;20382;-58
2023/09/19 10:07:05;;;;;;;12.30;3.63;;;;;;;;;;5132237;28;20118;-57
2023/09/19 10:09:36;;;;;;;17.80;3.90;;;;;;;;;;5117034;28;20375;-57
2023/09/19 10:12:10;;;;;;;12.95;1.88;;;;;;;;;;5105135;28;20458;-61
2023/09/19 10:14:38;;;;;;;15.60;2.88;;;;;;;;;;5125083;28;20052;-58
2023/09/19 10:17:10;;;;;;;14.95;2.47;;;;;;;;;;5106120;28;20047;-63
2023/09/19 10:19:57;;;;;;;14.50;3.00;;;;;;;;;;5131530;28;20122;-60
2023/09/19 10:22:24;;;;;;;10.90;2.28;;;;;;;;;;5112900;27;20074;-59
2023/09/19 10:24:54;;;;;;;10.77;2.55;;;;;;;;;;5131525;27;20047;-60
2023/09/19 10:27:21;;;;;;;11.95;3.17;;;;;;;;;;5134382;27;20035;-63
2023/09/19 10:29:55;;;;;;;16.23;2.75;;;;;;;;;;5134042;27;20051;-63
2023/09/19 10:32:23;;;;;;;16.42;3.42;;;18.10;99.90;;;;;;5131751;27;20382;-62
2023/09/19 10:34:49;;;;;;;11.90;2.53;;;;;;;;;;5134085;27;20051;-62
2023/09/19 10:37:21;;;;;;;10.52;2.50;;;;;;;;;;5117358;27;20098;-62
2023/09/19 10:39:49;;;;;;;12.43;2.83;;;;;;;;;;5114198;27;20448;-62
2023/09/19 10:42:17;;;;;;;15.05;4.03;;;;;;;;;;5130924;27;20052;-62
2023/09/19 10:44:45;;;;;;;13.25;2.85;;;;;;;;;;5125142;27;20071;-62
2023/09/19 10:47:13;;;;;;;10.98;3.20;;;;;;;;;;5099698;27;20142;-62
2023/09/19 10:49:49;;;;;;;12.38;2.58;;;;;;;;;;5133446;27;20054;-62
2023/09/19 10:52:19;;;;;;;14.50;2.28;;;;;;;;;;5132665;27;20688;-62
2023/09/19 10:54:51;;;;;;;10.93;2.33;;;;;;;;;;5135401;27;20107;-62
2023/09/19 10:57:28;;;;;;;12.60;2.17;;;;;;;;;;5117268;27;20050;-63
2023/09/19 11:00:46;;;;;;;13.18;2.03;;;;;;;;;;5116784;27;20533;-62
2023/09/19 11:03:11;;;;;;;10.43;2.13;;;;;;;;;;5094302;27;20049;-62
2023/09/19 11:05:41;;;;;;;10.32;2.10;;;;;;;;;;5109271;27;20047;-60
2023/09/19 11:08:07;;;;;;;10.68;2.53;;;;;;;;;;5134290;27;20046;-60
2023/09/19 11:10:50;;;;;;;13.23;2.50;;;;;;;;;;5115370;27;20092;-60
2023/09/19 11:13:31;;;;;;;8.50;2.10;;;;;;;;;;5126383;27;20055;-60
2023/09/19 11:16:04;;;;;;;17.40;2.70;;;;;;;;;;5133251;27;20136;-60
2023/09/19 11:18:43;;;;;;;10.80;1.98;;;;;;;;;;5134343;27;20110;-60
2023/09/19 11:21:33;;;;;;;19.65;3.28;;;;;;;;;;5115562;27;20096;-60
2023/09/19 11:24:26;;;;;;;;;;;18.50;99.90;;;;;;5136180;27;20100;-59
2023/09/19 11:27:09;;;;;;;13.48;2.30;;;;;;;;;;5118183;27;19923;-59
2023/09/19 11:29:35;;;;;;;15.27;2.35;;;;;;;;;;5114690;27;20154;-59
2023/09/19 11:32:02;;;;;;;9.70;2.10;;;;;;;;;;5115978;27;20043;-60
2023/09/19 11:34:37;;;;;;;15.75;2.53;;;;;;;;;;5132099;27;20077;-60
2023/09/19 11:37:04;;;;;;;16.77;3.15;;;;;;;;;;5131788;27;20043;-60
2023/09/19 11:39:30;;;;;;;9.60;2.38;;;;;;;;;;5133326;27;20047;-59
2023/09/19 11:41:57;;;;;;;11.65;2.00;;;;;;;;;;5132839;27;20043;-60
2023/09/19 11:44:26;;;;;;;13.50;2.33;;;;;;;;;;5133554;27;20142;-59
2023/09/19 11:46:52;;;;;;;7.82;1.85;;;;;;;;;;5133530;27;20043;-59
2023/09/19 11:49:23;;;;;;;14.45;2.30;;;;;;;;;;5116233;27;20086;-59
2023/09/19 11:51:54;;;;;;;12.70;2.85;;;;;;;;;;5109442;28;20547;-58
2023/09/19 11:54:28;;;;;;;8.65;1.67;;;;;;;;;;5093585;28;20078;-59
2023/09/19 11:56:55;;;;;;;9.57;2.63;;;;;;;;;;5099169;27;20065;-59
2023/09/19 11:59:27;;;;;;;8.50;1.33;;;;;;;;;;5115887;27;20478;-59
2023/09/19 12:01:58;;;;;;;10.02;1.67;;;;;;;;;;5128984;27;20047;-59
2023/09/19 12:04:24;;;;;;;;;;;;;;;;;;5133083;27;20558;-59
2023/09/19 12:06:58;;;;;;;7.38;1.73;;;;;;;;;;5133086;27;19919;-59
2023/09/19 12:09:25;;;;;;;11.90;1.77;;;;;;;;;;5114636;27;20047;-59
2023/09/19 12:11:51;;;;;;;11.05;1.65;;;;;;;;;;5096930;27;20043;-59
2023/09/19 12:14:27;;;;;;;10.57;1.50;;;;;;;;;;5114980;27;20054;-59
2023/09/19 12:17:00;;;;;;;7.65;1.70;;;;;;;;;;5115188;27;20047;-59
2023/09/19 12:19:26;;;;;;;8.57;1.60;;;;;;;;;;5098704;27;20149;-59
2023/09/19 12:22:04;;;;;;;5.60;1.60;;;;;;;;;;5131538;27;20051;-59
2023/09/19 12:24:30;;;;;;;7.85;1.85;;;;;;;;;;5095945;27;20055;-60
2023/09/19 12:27:01;;;;;;;6.45;1.63;;;19.10;99.90;;;;;;5114777;27;20115;-59
2023/09/19 12:29:29;;;;;;;7.78;1.65;;;;;;;;;;5114648;27;20039;-59
2023/09/19 12:31:57;;;;;;;6.05;1.35;;;;;;;;;;5129255;27;20059;-58
2023/09/19 12:34:27;;;;;;;8.18;1.60;;;;;;;;;;5131528;27;20051;-59
2023/09/19 12:37:12;;;;;;;10.73;2.58;;;;;;;;;;5132326;27;20041;-59
2023/09/19 12:39:40;;;;;;;8.05;1.52;;;;;;;;;;5114320;27;20040;-59
2023/09/19 12:42:08;;;;;;;8.30;1.95;;;;;;;;;;5112688;27;20062;-59
2023/09/19 12:44:35;;;;;;;6.97;1.58;;;;;;;;;;5132167;27;20051;-59
2023/09/19 12:47:09;;;;;;;6.57;1.40;;;;;;;;;;5132192;27;20471;-59
2023/09/19 12:49:35;;;;;;;5.53;1.40;;;;;;;;;;5129125;27;20100;-59
2023/09/19 12:52:01;;;;;;;6.38;1.60;;;;;;;;;;5130422;27;20043;-58
2023/09/19 12:54:38;;;;;;;6.03;1.45;;;;;;;;;;5130828;27;20043;-59
2023/09/19 12:57:05;;;;;;;8.30;1.58;;;;;;;;;;5132065;27;20047;-58
2023/09/19 12:59:32;;;;;;;10.38;1.50;;;;;;;;;;5130372;27;20079;-59
2023/09/19 13:02:07;;;;;;;6.50;1.40;;;;;;;;;;5104735;27;20081;-58
2023/09/19 13:04:34;;;;;;;8.50;1.70;;;;;;;;;;5111098;27;20121;-61
2023/09/19 13:07:05;;;;;;;5.07;1.40;;;;;;;;;;5126671;27;20447;-61
2023/09/19 13:09:34;;;;;;;7.68;1.20;;;;;;;;;;5129255;27;20119;-59
2023/09/19 13:12:02;;;;;;;9.65;1.35;;;;;;;;;;5132588;27;20039;-60
2023/09/19 13:14:28;;;;;;;8.75;1.23;;;;;;;;;;5113239;27;20074;-59
2023/09/19 13:16:55;;;;;;;6.30;1.50;;;;;;;;;;5114448;27;20047;-59
2023/09/19 13:19:41;;;;;;;4.07;1.33;;;;;;;;;;5131697;27;20132;-59
2023/09/19 13:22:43;;;;;;;4.47;1.30;;;17.70;99.90;;;;;;5132987;27;20075;-59
2023/09/19 13:25:18;;;;;;;5.13;1.65;;;;;;;;;;5131227;27;20387;-60
2023/09/19 13:27:44;;;;;;;5.95;1.20;;;;;;;;;;5114250;27;20054;-59
2023/09/19 13:30:11;;;;;;;6.03;1.30;;;;;;;;;;5102058;27;20047;-59
2023/09/19 13:32:38;;;;;;;4.20;0.85;;;;;;;;;;5131664;27;20482;-59
2023/09/19 13:35:05;;;;;;;7.35;1.10;;;;;;;;;;5095226;28;20399;-60
2023/09/19 13:37:31;;;;;;;7.07;2.63;;;;;;;;;;5102044;28;20100;-59
2023/09/19 13:39:57;;;;;;;9.60;2.25;;;;;;;;;;5131978;28;20051;-59
2023/09/19 13:42:25;;;;;;;4.15;1.08;;;;;;;;;;5131365;28;20050;-59
2023/09/19 13:44:51;;;;;;;6.63;1.40;;;;;;;;;;5132040;27;20479;-59
2023/09/19 13:47:24;;;;;;;14.70;2.65;;;;;;;;;;5112913;28;20065;-59
2023/09/19 13:49:52;;;;;;;8.23;1.88;;;;;;;;;;5113558;28;20058;-59
2023/09/19 13:52:18;;;;;;;10.50;1.77;;;;;;;;;;5132101;28;20356;-59
2023/09/19 13:54:44;;;;;;;10.68;1.88;;;;;;;;;;5131686;28;20055;-59
2023/09/19 13:57:11;;;;;;;8.35;1.23;;;;;;;;;;5113463;28;20055;-59
2023/09/19 13:59:37;;;;;;;5.95;1.38;;;;;;;;;;5136626;27;20051;-59
2023/09/19 14:02:03;;;;;;;7.85;1.65;;;;;;;;;;5132530;27;20050;-61
2023/09/19 14:04:31;;;;;;;5.43;1.13;;;;;;;;;;5132693;27;20058;-59
2023/09/19 14:06:57;;;;;;;6.57;1.23;;;;;;;;;;5117526;27;20091;-61
2023/09/19 14:09:24;;;;;;;4.88;1.15;;;;;;;;;;5134516;27;20490;-59
2023/09/19 14:11:52;;;;;;;6.97;1.52;;;;;;;;;;5134456;27;20076;-59
2023/09/19 14:14:20;;;;;;;7.38;1.38;;;;;;;;;;5133167;27;20105;-61
2023/09/19 14:16:46;;;;;;;7.30;1.27;;;;;;;;;;5135980;27;20486;-60
2023/09/19 14:19:13;;;;;;;4.63;1.30;;;;;;;;;;5134723;27;20435;-61
2023/09/19 14:21:39;;;;;;;4.93;1.00;;;;;;;;;;5118158;27;20059;-61
2023/09/19 14:24:09;;;;;;;5.60;1.17;;;;;;;;;;5132332;27;20126;-59
2023/09/19 14:26:35;;;;;;;7.20;1.00;;;;;;;;;;5116724;27;20199;-60
2023/09/19 14:29:02;;;;;;;6.35;1.80;;;;;;;;;;5136169;27;20082;-62
2023/09/19 14:31:28;;;;;;;2.80;1.10;;;;;;;;;;5114474;27;20043;-66
2023/09/19 14:33:59;;;;;;;5.65;1.40;;;;;;;;;;5112027;27;20043;-65
2023/09/19 14:36:25;;;;;;;5.95;1.38;;;;;;;;;;5133569;27;20476;-64
2023/09/19 14:38:56;;;;;;;4.50;1.23;;;;;;;;;;5114992;27;20533;-66
2023/09/19 14:41:25;;;;;;;6.30;1.00;;;;;;;;;;5115810;27;20055;-66
2023/09/19 14:43:51;;;;;;;4.85;1.48;;;;;;;;;;5114828;27;20056;-65
2023/09/19 14:46:18;;;;;;;7.55;1.17;;;;;;;;;;5103571;27;20475;-65